CheckWX is a tool to help pilots better visualize weather data.  It is not intended as a substitute for an official pre-flight weather briefing.

09:25:28 UTC

LEBR TAF
Bardenas Reales Airport
Bardenas Reales, Spain
TAF LEBR 060500Z 0606/0615 31019KT 9999 FEW025 PROB40 TEMPO 0610/0615 31025G35KT

Jul-6@
06:00 UTC

Jul-6 @ 06:00 UTC

Jul-6@
15:00 UTC

Jul-6 @ 15:00 UTC

TAF LEBR 060500Z 0606/0615 31019KT 9999 FEW025
Wind
  • 310° at 19 KTS
Cloud Levels
  • Few at 2,500' AGL

Jul-6@
10:00 UTC

Jul-6 @ 10:00 UTC

Jul-6@
15:00 UTC

Jul-6 @ 15:00 UTC

PROB40 TEMPO 0610/0615 31025G35KT

Temporary - 40% Likelihood

Temporary - 40% Likelihood during this time.

Wind
  • 310° at 25 KTS
  • {Gusting to 35 KTS
Cloud Levels